sensor_id;sensor_type;location;lat;lon;timestamp;pressure;altitude;pressure_sealevel;temperature;humidity
13013;BME280;22580;57.670;12.006;2023-03-21T00:00:33;101031.00;;;14.18;80.19
13013;BME280;22580;57.670;12.006;2023-03-21T00:03:13;101094.78;;;14.27;80.57
13013;BME280;22580;57.670;12.006;2023-03-21T00:05:44;101097.97;;;14.43;80.32
13013;BME280;22580;57.670;12.006;2023-03-21T00:08:14;101109.47;;;14.46;80.47
13013;BME280;22580;57.670;12.006;2023-03-21T00:10:41;101014.41;;;14.13;80.06
13013;BME280;22580;57.670;12.006;2023-03-21T00:13:22;101123.28;;;14.84;79.85
13013;BME280;22580;57.670;12.006;2023-03-21T00:15:55;101114.34;;;14.40;80.68
13013;BME280;22580;57.670;12.006;2023-03-21T00:18:27;101120.38;;;14.76;79.39
13013;BME280;22580;57.670;12.006;2023-03-21T00:21:04;101124.28;;;14.83;79.44
13013;BME280;22580;57.670;12.006;2023-03-21T00:23:34;101112.78;;;14.81;79.67
13013;BME280;22580;57.670;12.006;2023-03-21T00:26:03;101094.56;;;14.73;78.68
13013;BME280;22580;57.670;12.006;2023-03-21T00:28:34;101068.34;;;14.87;77.36
13013;BME280;22580;57.670;12.006;2023-03-21T00:31:03;101108.38;;;15.12;76.88
13013;BME280;22580;57.670;12.006;2023-03-21T00:33:32;101115.56;;;13.92;79.98
13013;BME280;22580;57.670;12.006;2023-03-21T00:36:04;101095.16;;;14.34;79.33
13013;BME280;22580;57.670;12.006;2023-03-21T00:38:32;100986.28;;;14.17;78.15
13013;BME280;22580;57.670;12.006;2023-03-21T00:41:01;101102.81;;;15.25;76.95
13013;BME280;22580;57.670;12.006;2023-03-21T00:43:33;101027.97;;;14.87;76.26
13013;BME280;22580;57.670;12.006;2023-03-21T00:46:03;101080.03;;;15.29;75.60
13013;BME280;22580;57.670;12.006;2023-03-21T00:48:34;101065.38;;;15.22;75.42
13013;BME280;22580;57.670;12.006;2023-03-21T00:51:19;101006.25;;;14.79;75.05
13013;BME280;22580;57.670;12.006;2023-03-21T00:53:57;101065.78;;;15.38;74.98
13013;BME280;22580;57.670;12.006;2023-03-21T00:56:34;101078.75;;;14.91;74.97
13013;BME280;22580;57.670;12.006;2023-03-21T00:59:01;101088.31;;;14.84;75.89
13013;BME280;22580;57.670;12.006;2023-03-21T01:01:35;101084.16;;;15.12;75.93
13013;BME280;22580;57.670;12.006;2023-03-21T01:04:06;101096.88;;;15.10;76.31
13013;BME280;22580;57.670;12.006;2023-03-21T01:06:38;101107.06;;;15.06;76.34
13013;BME280;22580;57.670;12.006;2023-03-21T01:09:13;101100.88;;;14.40;77.78
13013;BME280;22580;57.670;12.006;2023-03-21T01:11:43;101103.59;;;14.29;78.89
13013;BME280;22580;57.670;12.006;2023-03-21T01:14:18;101051.31;;;14.11;78.19
13013;BME280;22580;57.670;12.006;2023-03-21T01:17:05;100994.63;;;14.03;77.56
13013;BME280;22580;57.670;12.006;2023-03-21T01:19:34;101109.19;;;14.60;78.26
13013;BME280;22580;57.670;12.006;2023-03-21T01:22:01;101081.84;;;13.99;80.12
13013;BME280;22580;57.670;12.006;2023-03-21T01:24:30;100950.47;;;13.18;80.13
13013;BME280;22580;57.670;12.006;2023-03-21T01:27:06;101062.66;;;14.03;80.34
13013;BME280;22580;57.670;12.006;2023-03-21T01:29:33;101108.88;;;14.42;79.72
13013;BME280;22580;57.670;12.006;2023-03-21T01:32:15;101102.00;;;14.38;79.53
13013;BME280;22580;57.670;12.006;2023-03-21T01:34:45;101031.78;;;13.87;80.11
13013;BME280;22580;57.670;12.006;2023-03-21T01:37:12;101076.81;;;14.28;79.99
13013;BME280;22580;57.670;12.006;2023-03-21T01:39:42;101097.84;;;14.11;80.92
13013;BME280;22580;57.670;12.006;2023-03-21T01:42:15;101041.56;;;13.76;80.23
13013;BME280;22580;57.670;12.006;2023-03-21T01:44:52;100987.00;;;13.54;79.67
13013;BME280;22580;57.670;12.006;2023-03-21T01:47:25;101006.78;;;13.75;78.95
13013;BME280;22580;57.670;12.006;2023-03-21T01:49:55;101095.91;;;14.79;77.33
13013;BME280;22580;57.670;12.006;2023-03-21T01:52:26;101086.34;;;14.86;76.44
13013;BME280;22580;57.670;12.006;2023-03-21T01:55:15;101020.94;;;14.54;75.67
13013;BME280;22580;57.670;12.006;2023-03-21T01:57:47;101112.78;;;14.81;76.39
13013;BME280;22580;57.670;12.006;2023-03-21T02:00:56;101072.03;;;14.86;75.24
13013;BME280;22580;57.670;12.006;2023-03-21T02:03:39;101072.63;;;14.89;74.94
13013;BME280;22580;57.670;12.006;2023-03-21T02:09:36;100975.84;;;14.46;73.44
13013;BME280;22580;57.670;12.006;2023-03-21T02:12:05;101057.75;;;14.74;74.11
13013;BME280;22580;57.670;12.006;2023-03-21T02:14:35;101078.25;;;15.18;72.25
13013;BME280;22580;57.670;12.006;2023-03-21T02:17:16;101116.63;;;15.52;71.94
13013;BME280;22580;57.670;12.006;2023-03-21T02:20:26;101119.66;;;15.38;72.72
13013;BME280;22580;57.670;12.006;2023-03-21T02:23:19;101122.94;;;15.41;71.89
13013;BME280;22580;57.670;12.006;2023-03-21T02:29:39;101011.38;;;13.28;78.61
13013;BME280;22580;57.670;12.006;2023-03-21T02:32:24;101107.88;;;13.98;78.70
13013;BME280;22580;57.670;12.006;2023-03-21T02:35:13;101107.59;;;13.45;80.85
13013;BME280;22580;57.670;12.006;2023-03-21T02:37:58;101136.81;;;13.61;81.67
13013;BME280;22580;57.670;12.006;2023-03-21T02:40:57;101012.97;;;13.31;79.70
13013;BME280;22580;57.670;12.006;2023-03-21T02:43:55;101095.50;;;14.40;77.66
13013;BME280;22580;57.670;12.006;2023-03-21T02:49:28;101034.59;;;14.62;74.56
13013;BME280;22580;57.670;12.006;2023-03-21T02:52:07;101109.72;;;15.38;73.17
13013;BME280;22580;57.670;12.006;2023-03-21T02:54:46;101112.09;;;15.53;72.23
13013;BME280;22580;57.670;12.006;2023-03-21T02:57:24;101110.56;;;15.18;72.69
13013;BME280;22580;57.670;12.006;2023-03-21T02:59:54;101110.16;;;15.23;73.14
13013;BME280;22580;57.670;12.006;2023-03-21T03:02:34;101113.72;;;15.23;72.87
13013;BME280;22580;57.670;12.006;2023-03-21T03:05:14;101109.84;;;15.16;72.83
13013;BME280;22580;57.670;12.006;2023-03-21T03:08:07;100997.31;;;14.57;72.65
13013;BME280;22580;57.670;12.006;2023-03-21T03:10:52;101109.34;;;15.43;72.08
13013;BME280;22580;57.670;12.006;2023-03-21T03:13:40;101098.03;;;14.96;73.36
13013;BME280;22580;57.670;12.006;2023-03-21T03:16:26;101054.63;;;14.90;72.73
13013;BME280;22580;57.670;12.006;2023-03-21T03:19:07;101105.47;;;15.04;73.20
13013;BME280;22580;57.670;12.006;2023-03-21T03:24:56;101120.09;;;15.43;71.73
13013;BME280;22580;57.670;12.006;2023-03-21T03:27:38;101093.63;;;15.48;70.98
13013;BME280;22580;57.670;12.006;2023-03-21T03:30:15;101100.41;;;15.43;71.00
13013;BME280;22580;57.670;12.006;2023-03-21T03:32:45;101107.47;;;15.23;71.28
13013;BME280;22580;57.670;12.006;2023-03-21T03:35:24;101109.06;;;15.25;71.18
13013;BME280;22580;57.670;12.006;2023-03-21T03:38:07;100990.47;;;14.74;70.20
13013;BME280;22580;57.670;12.006;2023-03-21T03:40:57;100982.69;;;14.71;70.22
13013;BME280;22580;57.670;12.006;2023-03-21T03:43:47;101052.31;;;15.17;69.95
13013;BME280;22580;57.670;12.006;2023-03-21T03:46:28;101079.09;;;15.39;69.65
13013;BME280;22580;57.670;12.006;2023-03-21T03:49:14;100930.63;;;14.29;69.89
13013;BME280;22580;57.670;12.006;2023-03-21T03:52:08;101113.72;;;15.65;69.80
13013;BME280;22580;57.670;12.006;2023-03-21T03:54:48;101085.88;;;15.34;70.06
13013;BME280;22580;57.670;12.006;2023-03-21T03:57:24;101017.69;;;14.71;70.80
13013;BME280;22580;57.670;12.006;2023-03-21T04:00:16;101117.00;;;15.27;71.37
13013;BME280;22580;57.670;12.006;2023-03-21T04:02:45;101050.06;;;15.22;70.24
13013;BME280;22580;57.670;12.006;2023-03-21T04:05:14;101104.25;;;15.70;69.81
13013;BME280;22580;57.670;12.006;2023-03-21T04:07:45;101104.59;;;15.56;70.03
13013;BME280;22580;57.670;12.006;2023-03-21T04:10:15;101087.38;;;15.48;70.32
13013;BME280;22580;57.670;12.006;2023-03-21T04:12:44;101092.50;;;15.51;69.67
13013;BME280;22580;57.670;12.006;2023-03-21T04:15:24;101102.31;;;15.52;69.64
13013;BME280;22580;57.670;12.006;2023-03-21T04:17:52;101044.94;;;15.19;69.30
13013;BME280;22580;57.670;12.006;2023-03-21T04:20:20;101051.97;;;15.31;69.39
13013;BME280;22580;57.670;12.006;2023-03-21T04:22:49;101080.75;;;15.31;70.00
13013;BME280;22580;57.670;12.006;2023-03-21T04:25:26;101086.84;;;15.33;70.02
13013;BME280;22580;57.670;12.006;2023-03-21T04:28:00;101103.75;;;15.35;69.99
13013;BME280;22580;57.670;12.006;2023-03-21T04:30:35;101097.84;;;15.41;70.50
13013;BME280;22580;57.670;12.006;2023-03-21T04:33:06;101082.69;;;15.08;70.90
13013;BME280;22580;57.670;12.006;2023-03-21T04:35:33;101096.25;;;15.18;71.16
13013;BME280;22580;57.670;12.006;2023-03-21T04:38:04;101089.66;;;15.11;71.44
13013;BME280;22580;57.670;12.006;2023-03-21T04:40:35;101095.31;;;15.07;71.30
13013;BME280;22580;57.670;12.006;2023-03-21T04:43:04;100987.19;;;14.50;70.73
13013;BME280;22580;57.670;12.006;2023-03-21T04:45:36;101081.41;;;14.70;72.38
13013;BME280;22580;57.670;12.006;2023-03-21T04:48:05;101101.13;;;14.60;72.68
13013;BME280;22580;57.670;12.006;2023-03-21T04:50:32;101098.81;;;14.87;73.05
13013;BME280;22580;57.670;12.006;2023-03-21T04:53:01;101095.94;;;15.00;73.00
13013;BME280;22580;57.670;12.006;2023-03-21T04:55:37;100910.84;;;14.30;71.34
13013;BME280;22580;57.670;12.006;2023-03-21T04:58:07;101013.22;;;15.02;70.07
13013;BME280;22580;57.670;12.006;2023-03-21T05:00:46;101021.16;;;15.24;69.21
13013;BME280;22580;57.670;12.006;2023-03-21T05:03:15;101105.84;;;15.73;68.87
13013;BME280;22580;57.670;12.006;2023-03-21T05:05:44;101056.63;;;15.50;68.42
13013;BME280;22580;57.670;12.006;2023-03-21T05:08:12;101070.81;;;15.52;68.37
13013;BME280;22580;57.670;12.006;2023-03-21T05:10:45;101045.66;;;15.21;68.12
13013;BME280;22580;57.670;12.006;2023-03-21T05:13:14;101124.44;;;15.55;68.52
13013;BME280;22580;57.670;12.006;2023-03-21T05:15:45;101030.94;;;14.84;68.23
13013;BME280;22580;57.670;12.006;2023-03-21T05:18:15;101087.72;;;15.33;68.54
13013;BME280;22580;57.670;12.006;2023-03-21T05:20:51;101119.69;;;15.59;68.63
13013;BME280;22580;57.670;12.006;2023-03-21T05:23:18;101091.53;;;15.31;69.31
13013;BME280;22580;57.670;12.006;2023-03-21T05:25:55;101030.94;;;15.04;69.25
13013;BME280;22580;57.670;12.006;2023-03-21T05:28:25;101122.28;;;15.49;69.33
13013;BME280;22580;57.670;12.006;2023-03-21T05:30:57;101115.31;;;15.47;68.90
13013;BME280;22580;57.670;12.006;2023-03-21T05:33:35;101112.50;;;15.48;68.12
13013;BME280;22580;57.670;12.006;2023-03-21T05:36:05;101089.28;;;15.15;68.35
13013;BME280;22580;57.670;12.006;2023-03-21T05:38:34;101098.22;;;15.16;68.67
13013;BME280;22580;57.670;12.006;2023-03-21T05:41:05;101135.97;;;15.57;68.21
13013;BME280;22580;57.670;12.006;2023-03-21T05:43:32;101001.59;;;14.81;67.93
13013;BME280;22580;57.670;12.006;2023-03-21T05:46:04;101130.03;;;15.63;67.90
13013;BME280;22580;57.670;12.006;2023-03-21T05:48:32;101111.97;;;15.01;70.19
13013;BME280;22580;57.670;12.006;2023-03-21T05:51:05;101120.91;;;15.02;71.01
13013;BME280;22580;57.670;12.006;2023-03-21T05:53:35;101116.06;;;14.85;71.66
13013;BME280;22580;57.670;12.006;2023-03-21T05:56:04;101095.91;;;14.25;73.43
13013;BME280;22580;57.670;12.006;2023-03-21T05:58:37;101118.63;;;14.54;72.69
13013;BME280;22580;57.670;12.006;2023-03-21T06:01:25;101112.03;;;14.47;72.43
13013;BME280;22580;57.670;12.006;2023-03-21T06:03:55;101116.38;;;14.70;72.21
13013;BME280;22580;57.670;12.006;2023-03-21T06:06:22;101084.50;;;14.32;71.95
13013;BME280;22580;57.670;12.006;2023-03-21T06:08:56;101126.03;;;14.73;71.51
13013;BME280;22580;57.670;12.006;2023-03-21T06:11:27;101127.41;;;14.99;70.93
13013;BME280;22580;57.670;12.006;2023-03-21T06:14:07;101125.50;;;14.79;71.80
13013;BME280;22580;57.670;12.006;2023-03-21T06:16:41;101008.72;;;14.38;70.84
13013;BME280;22580;57.670;12.006;2023-03-21T06:19:15;101107.31;;;15.03;70.50
13013;BME280;22580;57.670;12.006;2023-03-21T06:21:45;101127.25;;;15.33;70.13
13013;BME280;22580;57.670;12.006;2023-03-21T06:24:14;101082.56;;;14.77;70.66
13013;BME280;22580;57.670;12.006;2023-03-21T06:26:44;101111.59;;;15.06;71.15
13013;BME280;22580;57.670;12.006;2023-03-21T06:29:14;101097.47;;;14.27;72.72
13013;BME280;22580;57.670;12.006;2023-03-21T06:31:45;101124.06;;;14.75;72.66
13013;BME280;22580;57.670;12.006;2023-03-21T06:34:13;101128.66;;;14.52;73.52
13013;BME280;22580;57.670;12.006;2023-03-21T06:36:42;101065.53;;;14.88;73.00
13013;BME280;22580;57.670;12.006;2023-03-21T06:39:14;101084.81;;;14.72;73.23
13013;BME280;22580;57.670;12.006;2023-03-21T06:41:45;101057.47;;;14.56;73.42
13013;BME280;22580;57.670;12.006;2023-03-21T06:44:14;100981.69;;;13.97;73.75
13013;BME280;22580;57.670;12.006;2023-03-21T06:46:42;101092.53;;;14.98;72.76
13013;BME280;22580;57.670;12.006;2023-03-21T06:49:24;101108.94;;;15.48;73.22
13013;BME280;22580;57.670;12.006;2023-03-21T06:51:53;101020.56;;;15.21;71.00
13013;BME280;22580;57.670;12.006;2023-03-21T06:54:23;100985.78;;;14.87;71.70
13013;BME280;22580;57.670;12.006;2023-03-21T06:56:50;101098.75;;;15.30;72.83
13013;BME280;22580;57.670;12.006;2023-03-21T06:59:20;101099.69;;;15.40;72.45
13013;BME280;22580;57.670;12.006;2023-03-21T07:01:54;101078.00;;;15.42;70.82
13013;BME280;22580;57.670;12.006;2023-03-21T07:04:24;101097.28;;;15.68;71.29
13013;BME280;22580;57.670;12.006;2023-03-21T07:06:55;101091.63;;;15.71;70.37
13013;BME280;22580;57.670;12.006;2023-03-21T07:09:25;101011.72;;;15.30;69.59
13013;BME280;22580;57.670;12.006;2023-03-21T07:11:55;101102.28;;;15.72;69.32
13013;BME280;22580;57.670;12.006;2023-03-21T07:14:25;101102.47;;;15.18;71.35
13013;BME280;22580;57.670;12.006;2023-03-21T07:16:55;101096.47;;;14.94;72.06
13013;BME280;22580;57.670;12.006;2023-03-21T07:19:24;101104.06;;;14.89;72.91
13013;BME280;22580;57.670;12.006;2023-03-21T07:21:54;101106.06;;;14.75;72.88
13013;BME280;22580;57.670;12.006;2023-03-21T07:24:21;101115.69;;;14.57;74.14
13013;BME280;22580;57.670;12.006;2023-03-21T07:26:55;100996.63;;;14.44;72.57
13013;BME280;22580;57.670;12.006;2023-03-21T07:29:24;101124.97;;;15.28;70.84
13013;BME280;22580;57.670;12.006;2023-03-21T07:31:58;101128.91;;;15.24;70.93
13013;BME280;22580;57.670;12.006;2023-03-21T07:34:34;101107.28;;;15.15;70.66
13013;BME280;22580;57.670;12.006;2023-03-21T07:37:04;101133.50;;;15.01;71.80
13013;BME280;22580;57.670;12.006;2023-03-21T07:39:34;101103.72;;;14.82;71.89
13013;BME280;22580;57.670;12.006;2023-03-21T07:42:07;101126.84;;;15.17;71.39
13013;BME280;22580;57.670;12.006;2023-03-21T07:44:36;101119.78;;;15.36;70.01
13013;BME280;22580;57.670;12.006;2023-03-21T07:47:06;101016.13;;;14.03;72.75
13013;BME280;22580;57.670;12.006;2023-03-21T07:49:35;101073.03;;;14.53;71.88
13013;BME280;22580;57.670;12.006;2023-03-21T07:52:05;101120.31;;;14.98;71.16
13013;BME280;22580;57.670;12.006;2023-03-21T07:54:35;101103.09;;;14.90;71.12
13013;BME280;22580;57.670;12.006;2023-03-21T07:57:02;101082.44;;;15.11;69.71
13013;BME280;22580;57.670;12.006;2023-03-21T07:59:37;101121.09;;;15.42;68.94
13013;BME280;22580;57.670;12.006;2023-03-21T08:02:18;101125.75;;;15.40;68.88
13013;BME280;22580;57.670;12.006;2023-03-21T08:04:57;100953.47;;;14.46;68.39
13013;BME280;22580;57.670;12.006;2023-03-21T08:07:35;101088.31;;;14.84;70.15
13013;BME280;22580;57.670;12.006;2023-03-21T08:10:03;101103.69;;;14.93;70.11
13013;BME280;22580;57.670;12.006;2023-03-21T08:12:30;101119.41;;;14.77;70.97
13013;BME280;22580;57.670;12.006;2023-03-21T08:15:06;101117.13;;;14.72;71.23
13013;BME280;22580;57.670;12.006;2023-03-21T08:17:34;101110.13;;;15.34;69.54
13013;BME280;22580;57.670;12.006;2023-03-21T08:20:06;101111.75;;;15.25;68.19
13013;BME280;22580;57.670;12.006;2023-03-21T08:22:36;101114.41;;;15.04;69.51
13013;BME280;22580;57.670;12.006;2023-03-21T08:25:06;101035.94;;;14.88;70.10
13013;BME280;22580;57.670;12.006;2023-03-21T08:27:34;101110.44;;;15.40;67.56
13013;BME280;22580;57.670;12.006;2023-03-21T08:30:02;101114.78;;;15.32;67.83
13013;BME280;22580;57.670;12.006;2023-03-21T08:32:31;101085.25;;;15.09;67.53
13013;BME280;22580;57.670;12.006;2023-03-21T08:35:05;101064.59;;;14.78;69.15
13013;BME280;22580;57.670;12.006;2023-03-21T08:37:34;101088.88;;;15.20;67.55
13013;BME280;22580;57.670;12.006;2023-03-21T08:40:01;101115.13;;;15.38;66.95
13013;BME280;22580;57.670;12.006;2023-03-21T08:42:37;101091.84;;;15.17;66.38
13013;BME280;22580;57.670;12.006;2023-03-21T08:45:07;101018.88;;;14.99;66.87
13013;BME280;22580;57.670;12.006;2023-03-21T08:47:34;101107.75;;;15.61;65.40
13013;BME280;22580;57.670;12.006;2023-03-21T08:50:08;101104.19;;;15.82;64.84
13013;BME280;22580;57.670;12.006;2023-03-21T08:52:35;101099.72;;;15.71;65.53
13013;BME280;22580;57.670;12.006;2023-03-21T08:55:04;101100.19;;;16.06;63.60
13013;BME280;22580;57.670;12.006;2023-03-21T08:57:31;100984.19;;;15.26;63.23
13013;BME280;22580;57.670;12.006;2023-03-21T09:00:15;101103.34;;;16.12;62.24
13013;BME280;22580;57.670;12.006;2023-03-21T09:02:43;101111.38;;;15.71;63.43
13013;BME280;22580;57.670;12.006;2023-03-21T09:05:15;101095.19;;;15.71;63.56
13013;BME280;22580;57.670;12.006;2023-03-21T09:07:43;101101.44;;;15.72;63.69
13013;BME280;22580;57.670;12.006;2023-03-21T09:10:12;101076.78;;;15.77;63.06
13013;BME280;22580;57.670;12.006;2023-03-21T09:12:41;101094.66;;;15.78;63.46
13013;BME280;22580;57.670;12.006;2023-03-21T09:15:16;101048.69;;;15.49;62.31
13013;BME280;22580;57.670;12.006;2023-03-21T09:17:46;101098.00;;;15.91;62.20
13013;BME280;22580;57.670;12.006;2023-03-21T09:20:18;101096.53;;;16.17;61.24
13013;BME280;22580;57.670;12.006;2023-03-21T09:22:55;101091.97;;;16.08;60.60
13013;BME280;22580;57.670;12.006;2023-03-21T09:25:25;101083.16;;;15.76;60.36
13013;BME280;22580;57.670;12.006;2023-03-21T09:27:55;101077.38;;;15.80;60.25
13013;BME280;22580;57.670;12.006;2023-03-21T09:30:33;101071.03;;;15.91;60.10
13013;BME280;22580;57.670;12.006;2023-03-21T09:33:04;101050.53;;;15.79;59.58
13013;BME280;22580;57.670;12.006;2023-03-21T09:35:35;101089.53;;;15.74;59.69
13013;BME280;22580;57.670;12.006;2023-03-21T09:38:05;101018.72;;;15.42;59.26
13013;BME280;22580;57.670;12.006;2023-03-21T09:40:57;101086.84;;;16.05;58.45
13013;BME280;22580;57.670;12.006;2023-03-21T09:43:38;101076.44;;;16.31;58.47
13013;BME280;22580;57.670;12.006;2023-03-21T09:46:17;101039.91;;;15.77;58.25
13013;BME280;22580;57.670;12.006;2023-03-21T09:48:56;101082.38;;;16.25;57.58
13013;BME280;22580;57.670;12.006;2023-03-21T09:51:29;101087.53;;;16.37;57.22
13013;BME280;22580;57.670;12.006;2023-03-21T09:54:04;100997.34;;;15.81;56.74
13013;BME280;22580;57.670;12.006;2023-03-21T09:56:37;100997.72;;;15.66;56.70
13013;BME280;22580;57.670;12.006;2023-03-21T09:59:20;101088.09;;;16.01;57.31
13013;BME280;22580;57.670;12.006;2023-03-21T10:01:56;101061.59;;;16.06;56.77
13013;BME280;22580;57.670;12.006;2023-03-21T10:04:24;101058.38;;;16.22;55.64
13013;BME280;22580;57.670;12.006;2023-03-21T10:06:56;101083.78;;;16.88;54.50
13013;BME280;22580;57.670;12.006;2023-03-21T10:09:34;101007.72;;;16.54;53.51
13013;BME280;22580;57.670;12.006;2023-03-21T10:12:19;101075.97;;;17.14;51.96
13013;BME280;22580;57.670;12.006;2023-03-21T10:14:56;101048.47;;;16.32;54.09
13013;BME280;22580;57.670;12.006;2023-03-21T10:17:29;101064.59;;;17.01;53.41
13013;BME280;22580;57.670;12.006;2023-03-21T10:20:11;101040.16;;;16.83;53.41
13013;BME280;22580;57.670;12.006;2023-03-21T10:22:46;100963.41;;;16.76;52.20
13013;BME280;22580;57.670;12.006;2023-03-21T10:25:18;101065.50;;;17.48;50.91
13013;BME280;22580;57.670;12.006;2023-03-21T10:27:58;100887.00;;;15.98;51.00
13013;BME280;22580;57.670;12.006;2023-03-21T10:30:39;101040.16;;;16.83;51.29
13013;BME280;22580;57.670;12.006;2023-03-21T10:33:28;101053.63;;;17.22;51.22
13013;BME280;22580;57.670;12.006;2023-03-21T10:36:26;100938.84;;;16.41;51.61
13013;BME280;22580;57.670;12.006;2023-03-21T10:39:00;101051.50;;;17.16;51.79
13013;BME280;22580;57.670;12.006;2023-03-21T10:41:31;101030.34;;;17.01;51.84
13013;BME280;22580;57.670;12.006;2023-03-21T10:44:07;101040.84;;;17.04;52.16
13013;BME280;22580;57.670;12.006;2023-03-21T10:46:36;101040.41;;;17.28;50.71
13013;BME280;22580;57.670;12.006;2023-03-21T10:49:06;101031.06;;;17.60;50.47
13013;BME280;22580;57.670;12.006;2023-03-21T10:51:36;101031.09;;;17.97;49.55
13013;BME280;22580;57.670;12.006;2023-03-21T10:54:07;101006.09;;;17.85;49.22
13013;BME280;22580;57.670;12.006;2023-03-21T10:56:45;101032.97;;;17.87;48.66
13013;BME280;22580;57.670;12.006;2023-03-21T10:59:33;100945.06;;;17.36;48.75
13013;BME280;22580;57.670;12.006;2023-03-21T11:02:15;101021.19;;;17.78;49.08
13013;BME280;22580;57.670;12.006;2023-03-21T11:04:44;100994.50;;;17.56;48.88
13013;BME280;22580;57.670;12.006;2023-03-21T11:07:13;101019.22;;;18.25;48.46
13013;BME280;22580;57.670;12.006;2023-03-21T11:09:52;101022.19;;;18.50;48.02
13013;BME280;22580;57.670;12.006;2023-03-21T11:12:28;101003.94;;;18.52;45.79
13013;BME280;22580;57.670;12.006;2023-03-21T11:15:26;100963.16;;;17.73;46.91
13013;BME280;22580;57.670;12.006;2023-03-21T11:18:18;100940.59;;;18.27;46.62
13013;BME280;22580;57.670;12.006;2023-03-21T11:21:04;100977.09;;;18.58;45.77
13013;BME280;22580;57.670;12.006;2023-03-21T11:23:34;100990.50;;;18.95;45.08
13013;BME280;22580;57.670;12.006;2023-03-21T11:26:16;100991.19;;;18.97;44.59
13013;BME280;22580;57.670;12.006;2023-03-21T11:28:54;100990.66;;;19.20;43.53
13013;BME280;22580;57.670;12.006;2023-03-21T11:31:36;100891.41;;;18.49;41.54
13013;BME280;22580;57.670;12.006;2023-03-21T11:34:05;100889.31;;;18.79;42.44
13013;BME280;22580;57.670;12.006;2023-03-21T11:36:37;100964.16;;;19.06;41.91
13013;BME280;22580;57.670;12.006;2023-03-21T11:39:21;100862.16;;;18.71;42.47
13013;BME280;22580;57.670;12.006;2023-03-21T11:41:55;100977.06;;;19.63;42.04
13013;BME280;22580;57.670;12.006;2023-03-21T11:44:31;100938.25;;;19.37;41.22
13013;BME280;22580;57.670;12.006;2023-03-21T11:47:08;100907.06;;;19.07;39.66
13013;BME280;22580;57.670;12.006;2023-03-21T11:49:47;100873.63;;;18.29;39.56
13013;BME280;22580;57.670;12.006;2023-03-21T11:52:35;100867.81;;;19.11;39.82
13013;BME280;22580;57.670;12.006;2023-03-21T11:55:57;100826.72;;;19.24;38.75
13013;BME280;22580;57.670;12.006;2023-03-21T12:01:57;100873.19;;;19.37;40.31
13013;BME280;22580;57.670;12.006;2023-03-21T12:04:38;100961.47;;;19.66;41.70
13013;BME280;22580;57.670;12.006;2023-03-21T12:07:35;100957.38;;;20.12;41.05
13013;BME280;22580;57.670;12.006;2023-03-21T12:10:29;100946.03;;;20.16;38.74
13013;BME280;22580;57.670;12.006;2023-03-21T12:13:26;100947.53;;;20.11;37.61
13013;BME280;22580;57.670;12.006;2023-03-21T12:22:22;100944.34;;;20.23;36.98
13013;BME280;22580;57.670;12.006;2023-03-21T12:24:54;100929.31;;;19.45;36.99
13013;BME280;22580;57.670;12.006;2023-03-21T12:27:43;100933.97;;;19.52;37.56
13013;BME280;22580;57.670;12.006;2023-03-21T12:30:37;100942.59;;;19.98;38.13
13013;BME280;22580;57.670;12.006;2023-03-21T12:33:34;100927.91;;;20.25;37.77
13013;BME280;22580;57.670;12.006;2023-03-21T12:36:12;100934.69;;;20.21;37.89
13013;BME280;22580;57.670;12.006;2023-03-21T12:38:54;100923.13;;;20.11;38.01
13013;BME280;22580;57.670;12.006;2023-03-21T12:41:58;100801.59;;;18.72;39.27
13013;BME280;22580;57.670;12.006;2023-03-21T12:44:38;100930.38;;;19.94;39.63
13013;BME280;22580;57.670;12.006;2023-03-21T12:47:20;100941.78;;;20.14;38.78
13013;BME280;22580;57.670;12.006;2023-03-21T12:49:58;100938.50;;;20.60;38.73
13013;BME280;22580;57.670;12.006;2023-03-21T12:52:49;100784.34;;;19.57;38.55
13013;BME280;22580;57.670;12.006;2023-03-21T12:55:27;100853.75;;;19.92;39.38
13013;BME280;22580;57.670;12.006;2023-03-21T12:58:16;100920.47;;;20.84;39.13
13013;BME280;22580;57.670;12.006;2023-03-21T13:00:55;100907.09;;;20.74;39.50
13013;BME280;22580;57.670;12.006;2023-03-21T13:03:30;100840.19;;;20.33;39.04
13013;BME280;22580;57.670;12.006;2023-03-21T13:06:02;100879.25;;;20.56;38.83
13013;BME280;22580;57.670;12.006;2023-03-21T13:08:34;100894.13;;;21.01;39.32
13013;BME280;22580;57.670;12.006;2023-03-21T13:11:05;100906.16;;;21.14;39.02
13013;BME280;22580;57.670;12.006;2023-03-21T13:13:35;100906.59;;;21.42;38.69
13013;BME280;22580;57.670;12.006;2023-03-21T13:16:14;100905.16;;;21.63;38.09
13013;BME280;22580;57.670;12.006;2023-03-21T13:19:02;100890.31;;;21.34;38.20
13013;BME280;22580;57.670;12.006;2023-03-21T13:21:40;100898.25;;;21.52;37.46
13013;BME280;22580;57.670;12.006;2023-03-21T13:24:25;100902.63;;;20.98;38.48
13013;BME280;22580;57.670;12.006;2023-03-21T13:27:00;100897.84;;;21.00;37.97
13013;BME280;22580;57.670;12.006;2023-03-21T13:29:33;100867.59;;;21.03;39.18
13013;BME280;22580;57.670;12.006;2023-03-21T13:32:28;100886.56;;;21.35;38.96
13013;BME280;22580;57.670;12.006;2023-03-21T13:35:11;100876.41;;;21.13;39.12
13013;BME280;22580;57.670;12.006;2023-03-21T13:37:49;100776.38;;;20.61;39.09
13013;BME280;22580;57.670;12.006;2023-03-21T13:40:26;100874.88;;;21.18;39.13
13013;BME280;22580;57.670;12.006;2023-03-21T13:42:58;100877.47;;;21.04;39.54
13013;BME280;22580;57.670;12.006;2023-03-21T13:45:31;100823.06;;;20.48;40.35